Tiempo atmosférico en la estación meteorológica de Villamayor de los Montes, Burgos (882 m.)



Fecha
DESCASC
Temp. máxima en grados centígrados (hora)
DESCASC
Temp. mínima en grados centígrados (hora)
DESCASC
Temp. media en grados centígrados
DESCASC
Racha de viento máxima en m/sg (hora)
DESCASC
Velocidad máxima media en intervalos de 10 minutos(hora)
DESCASC
Precipitaciones diarias en mm
DESCASC
Precipitaciones de 00:00 a 06:00 en mm
DESCASC
Precipitaciones de 06:00 a 12:00 en mm
DESCASC
Precipitaciones de 12:00 a 18:00 en mm
DESCASC
Precipitaciones de 18:00 a 24:00 en mm
DESCASC
11-08-2020 27.3 (11:40) 15.3 (22:00) 21.3 14.44 (12:40) 8.89 (12:40) 9 0.8 0 6.8 1.4
10-08-2020 33.1 (14:30) 17.9 (05:20) 25.5 13.61 (15:20) 9.17 (15:20) 0 0 0 0 0
09-08-2020 34.3 (16:50) 18.9 (02:40) 26.6 13.33 (16:10) 5.28 (11:00) 0 0 0 0 0
08-08-2020 35.9 (17:00) 21.2 (04:10) 28.6 24.17 (18:10) 11.94 (18:10) 6.6 0 0 0 6.6
07-08-2020 37.5 (18:00) 23.5 (00:00) 30.5 11.39 (15:10) 5.83 (16:30) 0 0 0 0 0
06-08-2020 35.3 (15:20) 15.4 (00:00) 25.3 10.28 (16:10) 4.72 (09:10) 0 0 0 0 0
05-08-2020 32 (17:50) 9.9 (00:00) 20.9 6.11 (15:10) 3.33 (01:00) 0 0 0 0 0
04-08-2020 25.7 (15:50) 11.3 (07:00) 18.5 10.83 (19:10) 6.67 (19:40) 0 0 0 0 0
03-08-2020 25 (17:00) 12.1 (07:20) 18.6 11.39 (00:20) 6.39 (00:20) 0 0 0 0 0
02-08-2020 22.3 (16:50) 14.6 (00:00) 18.4 15 (12:10) 8.33 (19:40) 0 0 0 0 0
01-08-2020 29 (17:00) 16.4 (00:00) 22.7 14.72 (21:10) 8.33 (21:00) 0 0 0 0 0
31-07-2020 34.5 (18:50) 17.8 (07:00) 26.1 10.56 (01:10) 5.56 (01:10) 0 0 0 0 0
30-07-2020 34.6 (13:10) 20.3 (00:00) 27.4 24.17 (14:10) 12.78 (13:50) 11.2 0 0 0 11.2
29-07-2020 34.7 (17:40) 15.1 (00:00) 24.9 11.11 (00:10) 6.39 (00:10) 0 0 0 0 0
28-07-2020 27.1 (15:10) 15.6 (00:00) 21.4 15.56 (21:10) 9.72 (21:00) 0 0 0 0 0
27-07-2020 37.5 (16:30) 16.6 (00:00) 27.1 16.39 (20:30) 10.28 (20:30) 0.2 0 0 0 0.2
26-07-2020 33.5 (19:30) 14.3 (00:00) 23.9 10 (01:00) 6.11 (01:00) 0 0 0 0 0
25-07-2020 32.8 (18:00) 11.4 (00:00) 22.1 9.44 (21:40) 6.11 (21:40) 0 0 0 0 0
24-07-2020 27.7 (17:00) 14 (00:00) 20.9 10 (00:50) 6.39 (00:50) 0 0 0 0 0
23-07-2020 31.8 (17:00) 16.1 (00:00) 23.9 12.5 (22:20) 7.5 (22:00) 0 0 0 0 0
22-07-2020 31.2 (17:40) 16.2 (00:00) 23.7 16.67 (05:30) 6.39 (05:30) 9.4 9.4 0 0 0
21-07-2020 34.3 (14:10) 15 (00:00) 24.6 10.83 (16:10) 7.78 (20:30) 14.2 0 0 12.4 1.8
20-07-2020 33.4 (15:50) 15.7 (00:00) 24.6 11.11 (15:30) 6.67 (21:20) 0 0 0 0 0
19-07-2020 35.4 (17:20) 13.4 (00:00) 24.4 10.28 (21:10) 5.56 (21:10) 0 0 0 0 0
18-07-2020 32 (18:40) 11.3 (00:00) 21.7 10.56 (00:10) 6.11 (01:00) 0 0 0 0 0
17-07-2020 25.5 (16:30) 10 (00:00) 17.8 14.17 (15:10) 7.22 (14:30) 0 0 0 0 0
16-07-2020 26.9 (16:10) 10.6 (00:00) 18.8 13.89 (16:10) 8.06 (20:10) 0 0 0 0 0
15-07-2020 22.8 (18:10) 11.3 (00:00) 17 13.33 (10:10) 8.33 (11:10) 0 0 0 0 0

Gráficas

Temp. máximas Temp. mínimas Temp. medias Precipitaciones Rachas de viento máximas Velocidades máximas media en intervalos de 10 minutos

Datos horarios

Fecha y hora oficial Temperatura (ºC) Velocidad del viento (km/h) Dirección del viento Racha (km/h) Dirección de racha Precipitación (mm) Presión (hPa) Tendencia (hPa) Humedad (%)
2020-08-13 23:00:00 18 9 Nordeste 27 Nordeste 0 -- -- 75
2020-08-13 22:00:00 20.4 15 Nordeste 28 Norte 0 -- -- 62
2020-08-13 21:00:00 24.1 3 Noroeste 21 Noroeste 0 -- -- 34
2020-08-13 20:00:00 26.6 5 Oeste 16 Oeste 0 -- -- 29
2020-08-13 19:00:00 27.1 6 Oeste 17 Sudoeste 0 -- -- 31
2020-08-13 18:00:00 27.1 7 Noroeste 19 Oeste 0 -- -- 27
2020-08-13 17:00:00 27.1 8 Oeste 22 Sudoeste 0 -- -- 30
2020-08-13 16:00:00 25.9 9 Oeste 26 Sudoeste 0 -- -- 34
2020-08-13 15:00:00 24.6 11 Sudoeste 23 Sur 0 -- -- 42
2020-08-13 14:00:00 22.9 9 Oeste 26 Sudoeste 0 -- -- 51
2020-08-13 13:00:00 21.4 10 Sudoeste 26 Sur 0 -- -- 56
2020-08-13 12:00:00 20.3 11 Sur 26 Sudoeste 0 -- -- 61
2020-08-13 11:00:00 18.5 13 Sudoeste 24 Sur 0 -- -- 67
2020-08-13 10:00:00 16.6 12 Sur 18 Sur 0 -- -- 77
2020-08-13 09:00:00 14.4 5 Sur 8 Sur 0 -- -- 92
2020-08-13 08:00:00 13.6 5 Sudoeste 14 Sur 0 -- -- 91
2020-08-13 07:00:00 13.9 8 Sur 12 Sur 0 -- -- 88
2020-08-13 06:00:00 14.4 5 Sur 7 Sudoeste 0 -- -- 87
2020-08-13 05:00:00 14.2 3 Sudoeste 10 Sudeste 0 -- -- 90
2020-08-13 04:00:00 14.2 8 Sur 10 Sur 0 -- -- 89
2020-08-13 03:00:00 15.1 7 Sur 11 Sur 0 -- -- 89
2020-08-13 02:00:00 15.7 6 Sur 10 Sudoeste 0 -- -- 84
2020-08-13 01:00:00 17 4 Sudoeste 6 Sudoeste 0 -- -- 78
2020-08-13 00:00:00 18.1 2 Oeste 6 Noroeste 0 -- -- 74
2020-08-12 23:00:00 18.7 3 Noroeste 8 Noroeste 0 -- -- 70
2020-08-12 22:00:00 19.4 2 Sudoeste 9 Oeste 0 -- -- 65
2020-08-12 21:00:00 19.9 3 Oeste 22 Noroeste 0 -- -- 60
2020-08-12 20:00:00 20.8 13 Oeste 30 Oeste 0 -- -- 56
2020-08-12 19:00:00 22.2 14 Oeste 35 Oeste 0 -- -- 46
2020-08-12 18:00:00 19.8 18 Sur 47 Sudoeste 0 -- -- 57
2020-08-12 17:00:00 25.1 18 Sudoeste 39 Oeste 0 -- -- 40
2020-08-12 16:00:00 24.5 17 Sudoeste 36 Sudoeste 0 -- -- 42
2020-08-12 15:00:00 24.4 15 Oeste 35 Sudoeste 0 -- -- 46
2020-08-12 14:00:00 23.5 19 Sudoeste 41 Sudoeste 0 -- -- 49
2020-08-12 13:00:00 22 17 Sudoeste 31 Sudoeste 0 -- -- 57
2020-08-12 12:00:00 21.2 17 Sudoeste 27 Sur 0 -- -- 60
2020-08-12 11:00:00 19.1 13 Sur 28 Sur 0 -- -- 64
2020-08-12 10:00:00 17.9 15 Sur 25 Sur 0 -- -- 66
2020-08-12 09:00:00 16.5 13 Sur 25 Sudeste 0 -- -- 73
2020-08-12 08:00:00 14.2 14 Sur 22 Sudeste 0 -- -- 83
2020-08-12 07:00:00 14.2 12 Sudeste 22 Sudeste 0 -- -- 81
2020-08-12 06:00:00 14.2 10 Sudeste 18 Sudeste 0 -- -- 82
2020-08-12 05:00:00 15 7 Sudeste 27 Sudeste 0 -- -- 80
2020-08-12 04:00:00 15.5 12 Sudeste 25 Sudeste 0 -- -- 77
2020-08-12 03:00:00 15.7 12 Sudeste 22 Este 0 -- -- 76
2020-08-12 02:00:00 15.8 8 Sudeste 24 Sudeste 0 -- -- 76
2020-08-12 01:00:00 15.6 14 Sudeste 28 Sudeste 0 -- -- 78
2020-08-12 00:00:00 15.6 18 Sudeste 35 Este 0 -- -- 78
2020-08-11 23:00:00 15.6 17 Sudeste 32 Sudeste 0.4 -- -- 78
2020-08-11 22:00:00 15.3 21 Sudeste 49 Sudeste 1 -- -- 82
2020-08-11 21:00:00 19.7 31 Sur 44 Sur 0 -- -- 59
2020-08-11 20:00:00 20.4 25 Sur 39 Sur 0 -- -- 66
2020-08-11 19:00:00 21.4 23 Sur 37 Sur 0 -- -- 58
2020-08-11 18:00:00 20.3 23 Sur 36 Sur 0 -- -- 67
2020-08-11 17:00:00 19.6 19 Sudeste 30 Este 0.2 -- -- 72
2020-08-11 16:00:00 17.3 11 Sudeste 20 Sudeste 0.6 -- -- 81
2020-08-11 15:00:00 16 19 Sudoeste 51 Sur 5.2 -- -- 85
2020-08-11 14:00:00 18.7 9 Sudoeste 22 Sur 0.2 -- -- 79
2020-08-11 13:00:00 19.3 19 Sur 52 Sur 0.6 -- -- 75
2020-08-11 12:00:00 26.3 25 Sur 41 Sur 0 -- -- 39
2020-08-11 11:00:00 26.6 20 Sudeste 35 Sudeste 0 -- -- 41
2020-08-11 10:00:00 25.2 15 Sudeste 30 Este 0 -- -- 44
2020-08-11 09:00:00 22.5 12 Este 23 Sudeste 0 -- -- 51
2020-08-11 08:00:00 20.6 9 Sudeste 21 Sur 0 -- -- 58
2020-08-11 07:00:00 21.3 15 Sur 33 Sur 0 -- -- 57
2020-08-11 06:00:00 22.5 17 Sur 35 Sur 0 -- -- 49
2020-08-11 05:00:00 22.5 10 Sudeste 25 Sur 0 -- -- 46
2020-08-11 04:00:00 23.1 19 Sur 31 Sur 0 -- -- 43
2020-08-11 03:00:00 22 12 Sudeste 22 Sudeste 0 -- -- 46
2020-08-11 02:00:00 23.2 12 Sudeste 26 Sudeste 0 -- -- 44
2020-08-11 01:00:00 22.5 12 Este 28 Sudeste 0.8 -- -- 47
2020-08-11 00:00:00 24.4 9 Sudeste 21 Sudeste 0 -- -- 41
2020-08-10 23:00:00 24.3 11 Sudeste 18 Sudeste 0 -- -- 43
2020-08-10 22:00:00 25.2 9 Sudeste 19 Sur 0 -- -- 41
2020-08-10 21:00:00 27.4 13 Sur 34 Sur 0 -- -- 37
2020-08-10 20:00:00 28.5 18 Sur 34 Sur 0 -- -- 34
2020-08-10 19:00:00 29.6 10 Sudoeste 23 Sudoeste 0 -- -- 33
2020-08-10 18:00:00 29.7 16 Sur 41 Sudoeste 0 -- -- 32
2020-08-10 17:00:00 29.9 28 Sur 48 Sur 0 -- -- 31
2020-08-10 16:00:00 29.4 25 Sur 49 Sur 0 -- -- 32
2020-08-10 15:00:00 33 21 Sudoeste 46 Sur 0 -- -- 26
2020-08-10 14:00:00 32.2 22 Sur 42 Sur 0 -- -- 28
2020-08-10 13:00:00 31 24 Sudoeste 41 Sudoeste 0 -- -- 30
2020-08-10 12:00:00 30.1 23 Sudoeste 35 Sudoeste 0 -- -- 30
2020-08-10 11:00:00 28.6 17 Sur 27 Sur 0 -- -- 33
2020-08-10 10:00:00 24.8 2 Norte 11 Sur 0 -- -- 45
2020-08-10 09:00:00 21.7 4 Nordeste 13 Sudeste 0 -- -- 55
2020-08-10 08:00:00 20.2 6 Sudeste 13 Sudeste 0 -- -- 50
2020-08-10 07:00:00 20.5 4 Nordeste 19 Sur 0 -- -- 52
2020-08-10 06:00:00 20.4 12 Sur 19 Sur 0 -- -- 54
2020-08-10 05:00:00 18.6 2 Sur 14 Este 0 -- -- 68
2020-08-10 04:00:00 20.6 9 Este 15 Este 0 -- -- 60
2020-08-10 03:00:00 20.7 6 Nordeste 19 Este 0 -- -- 60
2020-08-10 02:00:00 21.5 7 Nordeste 13 Nordeste 0 -- -- 56
2020-08-10 01:00:00 21.3 0 Calma 6 Norte 0 -- -- 56
2020-08-10 00:00:00 23.3 4 Nordeste 9 Este 0 -- -- 49
2020-08-09 23:00:00 26.4 7 Este 13 Este 0 -- -- 37
2020-08-09 22:00:00 28.3 8 Nordeste 12 Este 0 -- -- 33
2020-08-09 21:00:00 29.9 7 Norte 15 Norte 0 -- -- 31
2020-08-09 20:00:00 32.9 5 Noroeste 22 Oeste 0 -- -- 27
2020-08-09 19:00:00 33.9 8 Oeste 24 Noroeste 0 -- -- 24
2020-08-09 18:00:00 34.1 10 Oeste 48 Sudoeste 0 -- -- 24
2020-08-09 17:00:00 34.2 18 Sudoeste 48 Sudoeste 0 -- -- 24
2020-08-09 16:00:00 33.9 13 Sudoeste 41 Sudoeste 0 -- -- 26
2020-08-09 15:00:00 33.3 16 Sudoeste 34 Sudoeste 0 -- -- 25
2020-08-09 14:00:00 32.8 13 Sudoeste 33 Sudoeste 0 -- -- 28
2020-08-09 13:00:00 31.8 15 Sudoeste 28 Sudoeste 0 -- -- 31
2020-08-09 12:00:00 30.6 14 Sur 28 Sur 0 -- -- 32
2020-08-09 11:00:00 28.9 19 Sur 28 Sur 0 -- -- 35
2020-08-09 10:00:00 26.7 17 Sudeste 28 Sudeste 0 -- -- 39
2020-08-09 09:00:00 24.3 13 Sudeste 24 Sudeste 0 -- -- 45
2020-08-09 08:00:00 22.5 12 Sudeste 22 Sudeste 0 -- -- 48
2020-08-09 07:00:00 20.1 6 Sudeste 13 Sudeste 0 -- -- 55
2020-08-09 06:00:00 20.3 3 Sudeste 14 Sudeste 0 -- -- 59
2020-08-09 05:00:00 21.2 7 Sudeste 13 Sudeste 0 -- -- 54
2020-08-09 04:00:00 19.6 5 Este 10 Sudeste 0 -- -- 65
2020-08-09 03:00:00 19.1 4 Este 7 Este 0 -- -- 68
2020-08-09 02:00:00 19.1 5 Norte 9 Norte 0 -- -- 69
2020-08-09 01:00:00 21.2 6 Nordeste 25 Este 0 -- -- 61
2020-08-09 00:00:00 21.7 13 Este 31 Este 0 -- -- 60
2020-08-08 23:00:00 21.7 18 Nordeste 29 Este 0 -- -- 61
2020-08-08 22:00:00 22.8 12 Nordeste 24 Este 0 -- -- 59
2020-08-08 21:00:00 23.1 14 Este 26 Oeste 0 -- -- 56
2020-08-08 20:00:00 23.6 17 Oeste 34 Sudoeste 0 -- -- 56
2020-08-08 19:00:00 24.5 6 Este 87 Sur 6.6 -- -- 54
2020-08-08 18:00:00 33.3 16 Sudoeste 62 Sudoeste 0 -- -- 28
2020-08-08 17:00:00 35.9 8 Sudoeste 28 Sudoeste 0 -- -- 22
2020-08-08 16:00:00 35.4 11 Oeste 29 Sudoeste 0 -- -- 23
2020-08-08 15:00:00 35 11 Sudoeste 26 Sudoeste 0 -- -- 24
2020-08-08 14:00:00 33.7 5 Sudoeste 26 Sudoeste 0 -- -- 28
2020-08-08 13:00:00 32.8 15 Sudoeste 22 Sur 0 -- -- 28
2020-08-08 12:00:00 31.7 9 Sur 20 Sur 0 -- -- 32
2020-08-08 11:00:00 29.9 10 Sur 18 Sur 0 -- -- 35
2020-08-08 10:00:00 28.1 8 Sudeste 17 Sur 0 -- -- 39
2020-08-08 09:00:00 25.9 6 Sudeste 18 Este 0 -- -- 42
2020-08-08 08:00:00 23.4 5 Este 16 Sudeste 0 -- -- 47
2020-08-08 07:00:00 23.7 9 Sudeste 23 Sudeste 0 -- -- 45
2020-08-08 06:00:00 22.9 8 Sudeste 18 Sudeste 0 -- -- 48
2020-08-08 05:00:00 21.4 6 Este 12 Nordeste 0 -- -- 54
2020-08-08 04:00:00 21.4 5 Nordeste 10 Nordeste 0 -- -- 58
2020-08-08 03:00:00 21.8 4 Nordeste 12 Este 0 -- -- 56
2020-08-08 02:00:00 21.9 5 Este 10 Norte 0 -- -- 55
2020-08-08 01:00:00 22.8 3 Nordeste 10 Este 0 -- -- 55
2020-08-08 00:00:00 23.8 8 Nordeste 23 Nordeste 0 -- -- 54
2020-08-07 23:00:00 25.5 10 Nordeste 17 Este 0 -- -- 46
2020-08-07 22:00:00 28.5 8 Este 21 Nordeste 0 -- -- 37
2020-08-07 21:00:00 32.2 7 Oeste 32 Sur 0 -- -- 29
2020-08-07 20:00:00 33.3 19 Sudoeste 35 Sudoeste 0 -- -- 27
2020-08-07 19:00:00 35.9 13 Oeste 35 Sudoeste 0 -- -- 25
2020-08-07 18:00:00 37.5 11 Sudoeste 33 Sudoeste 0 -- -- 24
2020-08-07 17:00:00 37 10 Oeste 36 Sudoeste 0 -- -- 24
2020-08-07 16:00:00 36.8 18 Sudoeste 41 Sur 0 -- -- 23
2020-08-07 15:00:00 35.8 12 Sudoeste 29 Sur 0 -- -- 25
2020-08-07 14:00:00 35.4 15 Sudoeste 30 Sudoeste 0 -- -- 24
2020-08-07 13:00:00 34.2 13 Sudoeste 26 Sudoeste 0 -- -- 27
2020-08-07 12:00:00 33 13 Sur 23 Sur 0 -- -- 28
2020-08-07 11:00:00 31.3 14 Sur 24 Sur 0 -- -- 31
2020-08-07 10:00:00 29.3 11 Sudeste 21 Sudeste 0 -- -- 34
2020-08-07 09:00:00 26.1 3 Sudeste 14 Sudeste 0 -- -- 45
2020-08-07 08:00:00 23.6 5 Este 15 Sudeste 0 -- -- 44
2020-08-07 07:00:00 23.8 9 Sudeste 24 Sudeste 0 -- -- 42
2020-08-07 06:00:00 23.7 8 Sudeste 21 Sudeste 0 -- -- 43
2020-08-07 05:00:00 24.3 9 Sudeste 23 Sudeste 0 -- -- 41
2020-08-07 04:00:00 24.9 12 Sudeste 20 Sudeste 0 -- -- 40
2020-08-07 03:00:00 25.4 12 Sudeste 20 Sudeste 0 -- -- 39
2020-08-07 02:00:00 25.9 10 Sudeste 30 Sur 0 -- -- 39
2020-08-07 01:00:00 27.2 15 Sudeste 28 Sudeste 0 -- -- 39
2020-08-07 00:00:00 26.7 10 Este 21 Este 0 -- -- 37
2020-08-06 23:00:00 27.2 9 Sudeste 14 Sur 0 -- -- 37
2020-08-06 22:00:00 29.1 7 Sudeste 18 Sur 0 -- -- 35
2020-08-06 21:00:00 31 10 Sur 19 Sudoeste 0 -- -- 32
2020-08-06 20:00:00 33.5 10 Sur 24 Sur 0 -- -- 26
2020-08-06 19:00:00 34.2 9 Sur 22 Sudoeste 0 -- -- 25
2020-08-06 18:00:00 34.8 9 Sur 20 Sur 0 -- -- 25
2020-08-06 17:00:00 34.5 9 Sur 37 Sudoeste 0 -- -- 25
2020-08-06 16:00:00 34.4 5 Sur 20 Sudoeste 0 -- -- 24
2020-08-06 15:00:00 34.8 15 Sudoeste 29 Sur 0 -- -- 23
2020-08-06 14:00:00 34.5 14 Sudoeste 27 Sudoeste 0 -- -- 24
2020-08-06 13:00:00 33.5 10 Oeste 20 Sudeste 0 -- -- 24
2020-08-06 12:00:00 31.6 10 Sur 27 Sudeste 0 -- -- 29
2020-08-06 11:00:00 29.2 14 Sudeste 27 Sudeste 0 -- -- 35
2020-08-06 10:00:00 26.7 16 Sudeste 34 Sudeste 0 -- -- 36
2020-08-06 09:00:00 24.3 14 Sudeste 25 Sudeste 0 -- -- 35
2020-08-06 08:00:00 16.2 4 Nordeste 6 Nordeste 0 -- -- 50
2020-08-06 07:00:00 16.4 3 Nordeste 11 Nordeste 0 -- -- 52
2020-08-06 06:00:00 15.6 5 Nordeste 16 Nordeste 0 -- -- 55
2020-08-06 05:00:00 17.4 10 Nordeste 17 Nordeste 0 -- -- 48
2020-08-06 04:00:00 17.5 6 Nordeste 9 Este 0 -- -- 48
2020-08-06 03:00:00 17.1 2 Nordeste 6 Nordeste 0 -- -- 53
2020-08-06 02:00:00 19.3 4 Nordeste 18 Nordeste 0 -- -- 46
2020-08-06 01:00:00 20.4 12 Nordeste 17 Nordeste 0 -- -- 45
2020-08-06 00:00:00 21.8 12 Nordeste 22 Nordeste 0 -- -- 43
2020-08-05 23:00:00 23.4 11 Nordeste 18 Nordeste 0 -- -- 39
2020-08-05 22:00:00 26.5 6 Nordeste 14 Nordeste 0 -- -- 33
2020-08-05 21:00:00 29.5 2 Noroeste 9 Norte 0 -- -- 29
2020-08-05 20:00:00 31.8 2 Noroeste 12 Norte 0 -- -- 24
2020-08-05 19:00:00 31.4 4 Este 14 Noroeste 0 -- -- 24
2020-08-05 18:00:00 32 8 Noroeste 15 Noroeste 0 -- -- 24
2020-08-05 17:00:00 31.6 7 Noroeste 18 Norte 0 -- -- 24
2020-08-05 16:00:00 30.6 6 Oeste 22 Norte 0 -- -- 28
2020-08-05 15:00:00 29.7 7 Norte 20 Norte 0 -- -- 31
2020-08-05 14:00:00 28.2 7 Noroeste 18 Noroeste 0 -- -- 32
2020-08-05 13:00:00 27 7 Noroeste 18 Noroeste 0 -- -- 36
2020-08-05 12:00:00 24.8 6 Noroeste 13 Noroeste 0 -- -- 41
2020-08-05 11:00:00 22.2 5 Sudoeste 14 Sudoeste 0 -- -- 48
2020-08-05 10:00:00 19.1 4 Sur 8 Sur 0 -- -- 61
2020-08-05 09:00:00 14.5 2 Norte 4 Norte 0 -- -- 78
2020-08-05 08:00:00 10.4 0 Calma 4 Sur 0 -- -- 87
2020-08-05 07:00:00 10.2 0 Calma 7 Este 0 -- -- 86
2020-08-05 06:00:00 11.5 3 Este 12 Este 0 -- -- 83
2020-08-05 05:00:00 12.5 6 Este 11 Nordeste 0 -- -- 79
2020-08-05 04:00:00 13.4 7 Nordeste 18 Nordeste 0 -- -- 77
2020-08-05 03:00:00 13.6 10 Nordeste 19 Nordeste 0 -- -- 78
2020-08-05 02:00:00 14.3 6 Nordeste 18 Nordeste 0 -- -- 77
2020-08-05 01:00:00 15.4 12 Nordeste 19 Nordeste 0 -- -- 74
2020-08-05 00:00:00 16.4 10 Nordeste 24 Nordeste 0 -- -- 70
2020-08-04 23:00:00 17.7 10 Nordeste 21 Nordeste 0 -- -- 65
2020-08-04 22:00:00 19.1 12 Nordeste 31 Nordeste 0 -- -- 59
2020-08-04 21:00:00 21.2 22 Nordeste 37 Nordeste 0 -- -- 52
2020-08-04 20:00:00 23.4 24 Nordeste 39 Norte 0 -- -- 45
2020-08-04 19:00:00 24.8 18 Nordeste 34 Norte 0 -- -- 40
2020-08-04 18:00:00 25.5 17 Norte 33 Norte 0 -- -- 39
2020-08-04 17:00:00 25.5 17 Norte 31 Norte 0 -- -- 35
2020-08-04 16:00:00 25.7 16 Norte 28 Norte 0 -- -- 36
2020-08-04 15:00:00 24.8 12 Norte 26 Noroeste 0 -- -- 37
2020-08-04 14:00:00 23.8 10 Norte 23 Norte 0 -- -- 40
2020-08-04 13:00:00 22.4 8 Norte 22 Norte 0 -- -- 47
2020-08-04 12:00:00 20.3 7 Nordeste 26 Nordeste 0 -- -- 53
2020-08-04 11:00:00 18.2 16 Nordeste 28 Nordeste 0 -- -- 61
2020-08-04 10:00:00 16.5 17 Nordeste 28 Nordeste 0 -- -- 67
2020-08-04 09:00:00 14.8 13 Nordeste 25 Nordeste 0 -- -- 74
2020-08-04 08:00:00 11.9 6 Nordeste 12 Nordeste 0 -- -- 79
2020-08-04 07:00:00 11.3 8 Nordeste 13 Nordeste 0 -- -- 76
2020-08-04 06:00:00 11.4 3 Norte 15 Nordeste 0 -- -- 72
2020-08-04 05:00:00 12.7 7 Nordeste 14 Nordeste 0 -- -- 63
2020-08-04 04:00:00 13.5 7 Nordeste 18 Nordeste 0 -- -- 61
2020-08-04 03:00:00 14.1 11 Nordeste 24 Este 0 -- -- 63
2020-08-04 02:00:00 14.4 13 Nordeste 22 Nordeste 0 -- -- 67
2020-08-04 01:00:00 14.9 10 Nordeste 25 Nordeste 0 -- -- 70
2020-08-04 00:00:00 16 14 Nordeste 26 Nordeste 0 -- -- 68
2020-08-03 23:00:00 17.2 14 Nordeste 27 Nordeste 0 -- -- 65
2020-08-03 22:00:00 18.7 16 Nordeste 32 Nordeste 0 -- -- 59
2020-08-03 21:00:00 20.8 15 Nordeste 32 Nordeste 0 -- -- 52
2020-08-03 20:00:00 23.2 17 Nordeste 29 Nordeste 0 -- -- 44
2020-08-03 19:00:00 24.2 17 Nordeste 36 Nordeste 0 -- -- 40
2020-08-03 18:00:00 24.9 14 Norte 33 Norte 0 -- -- 38
2020-08-03 17:00:00 25 17 Norte 33 Nordeste 0 -- -- 38
2020-08-03 16:00:00 24.5 18 Norte 33 Norte 0 -- -- 37
2020-08-03 15:00:00 23.5 17 Norte 34 Nordeste 0 -- -- 39
2020-08-03 14:00:00 22.6 17 Norte 32 Norte 0 -- -- 40
2020-08-03 13:00:00 21.1 14 Norte 31 Nordeste 0 -- -- 43
2020-08-03 12:00:00 19.9 13 Norte 29 Norte 0 -- -- 48
2020-08-03 11:00:00 18 14 Nordeste 30 Nordeste 0 -- -- 54
2020-08-03 10:00:00 16 20 Nordeste 32 Nordeste 0 -- -- 64
2020-08-03 09:00:00 14.5 18 Nordeste 33 Nordeste 0 -- -- 69
2020-08-03 08:00:00 12.9 17 Nordeste 28 Nordeste 0 -- -- 76
2020-08-03 07:00:00 12.3 12 Nordeste 26 Nordeste 0 -- -- 82
2020-08-03 06:00:00 12.5 17 Nordeste 27 Nordeste 0 -- -- 82
2020-08-03 05:00:00 12.8 14 Nordeste 24 Nordeste 0 -- -- 81
2020-08-03 04:00:00 13.6 11 Norte 30 Norte 0 -- -- 78
2020-08-03 03:00:00 14.2 18 Nordeste 34 Norte 0 -- -- 74
2020-08-03 02:00:00 14.3 18 Nordeste 33 Norte 0 -- -- 74
2020-08-03 01:00:00 14.4 18 Norte 41 Nordeste 0 -- -- 75
2020-08-03 00:00:00 15 21 Nordeste 45 Nordeste 0 -- -- 75
2020-08-02 23:00:00 15.7 17 Nordeste 37 Nordeste 0 -- -- 72
2020-08-02 22:00:00 16.3 22 Nordeste 41 Nordeste 0 -- -- 70
2020-08-02 21:00:00 17.1 26 Nordeste 42 Nordeste 0 -- -- 68
2020-08-02 20:00:00 18.6 27 Nordeste 45 Nordeste 0 -- -- 63
2020-08-02 19:00:00 19.7 22 Nordeste 43 Nordeste 0 -- -- 60
2020-08-02 18:00:00 20.8 27 Nordeste 50 Norte 0 -- -- 57
2020-08-02 17:00:00 22 30 Norte 46 Norte 0 -- -- 51
2020-08-02 16:00:00 21.9 28 Norte 47 Norte 0 -- -- 54
2020-08-02 15:00:00 21 26 Norte 44 Nordeste 0 -- -- 59
2020-08-02 14:00:00 21.9 24 Norte 44 Nordeste 0 -- -- 58
2020-08-02 13:00:00 20.6 26 Nordeste 54 Norte 0 -- -- 60
2020-08-02 12:00:00 19.8 27 Nordeste 42 Nordeste 0 -- -- 64
2020-08-02 11:00:00 18.2 26 Nordeste 41 Nordeste 0 -- -- 71
2020-08-02 10:00:00 17.9 23 Nordeste 42 Nordeste 0 -- -- 73
2020-08-02 09:00:00 16.5 23 Nordeste 35 Nordeste 0 -- -- 79
2020-08-02 08:00:00 15.2 14 Nordeste 27 Nordeste 0 -- -- 85
2020-08-02 07:00:00 14.6 14 Nordeste 28 Nordeste 0 -- -- 86
2020-08-02 06:00:00 14.7 18 Nordeste 31 Nordeste 0 -- -- 87
2020-08-02 05:00:00 15 17 Nordeste 32 Nordeste 0 -- -- 87
2020-08-02 04:00:00 15.3 17 Nordeste 30 Nordeste 0 -- -- 87
2020-08-02 03:00:00 15.6 16 Nordeste 31 Nordeste 0 -- -- 86
2020-08-02 02:00:00 16.2 17 Nordeste 40 Nordeste 0 -- -- 84
2020-08-02 01:00:00 16.4 24 Nordeste 37 Nordeste 0 -- -- 83
2020-08-02 00:00:00 17.1 17 Nordeste 39 Nordeste 0 -- -- 79
2020-08-01 23:00:00 17.4 25 Nordeste 45 Nordeste 0 -- -- 78
2020-08-01 22:00:00 18.5 24 Nordeste 53 Nordeste 0 -- -- 74
2020-08-01 21:00:00 20.3 30 Nordeste 46 Nordeste 0 -- -- 68
2020-08-01 20:00:00 23.5 23 Nordeste 42 Nordeste 0 -- -- 57
2020-08-01 19:00:00 26.6 23 Nordeste 39 Nordeste 0 -- -- 46
2020-08-01 18:00:00 28.3 20 Nordeste 32 Nordeste 0 -- -- 40
2020-08-01 17:00:00 29 15 Norte 28 Norte 0 -- -- 36
2020-08-01 16:00:00 28.6 12 Norte 31 Nordeste 0 -- -- 38
2020-08-01 15:00:00 27.3 12 Norte 27 Norte 0 -- -- 44
2020-08-01 14:00:00 26.8 12 Norte 26 Norte 0 -- -- 49
2020-08-01 13:00:00 25.9 12 Norte 23 Noroeste 0 -- -- 51
2020-08-01 12:00:00 24.9 5 Norte 18 Norte 0 -- -- 53
2020-08-01 11:00:00 23.4 4 Este 12 Nordeste 0 -- -- 57
2020-08-01 10:00:00 20.7 8 Nordeste 20 Nordeste 0 -- -- 71
2020-08-01 09:00:00 18.5 13 Nordeste 23 Nordeste 0 -- -- 80
2020-08-01 08:00:00 16.9 11 Nordeste 24 Nordeste 0 -- -- 88
2020-08-01 07:00:00 16.5 11 Norte 24 Nordeste 0 -- -- 90
2020-08-01 06:00:00 16.6 14 Nordeste 21 Nordeste 0 -- -- 90
2020-08-01 05:00:00 17.2 11 Nordeste 26 Nordeste 0 -- -- 88
2020-08-01 04:00:00 17.6 15 Nordeste 22 Nordeste 0 -- -- 88
2020-08-01 03:00:00 18.6 12 Nordeste 24 Nordeste 0 -- -- 83
2020-08-01 02:00:00 19.7 13 Nordeste 20 Nordeste 0 -- -- 81
2020-08-01 01:00:00 20.9 9 Nordeste 19 Nordeste 0 -- -- 72
2020-08-01 00:00:00 22.2 12 Nordeste 21 Nordeste 0 -- -- 59
2020-07-31 23:00:00 23.5 3 Nordeste 5 Noroeste 0 -- -- 44
2020-07-31 22:00:00 26.9 3 Sudoeste 5 Sudoeste 0 -- -- 30
2020-07-31 21:00:00 31.4 4 Oeste 17 Oeste 0 -- -- 25
2020-07-31 20:00:00 33.9 7 Sudoeste 20 Sudoeste 0 -- -- 20
2020-07-31 19:00:00 34.4 9 Sudoeste 27 Sudoeste 0 -- -- 19
2020-07-31 18:00:00 34.4 10 Oeste 23 Sudoeste 0 -- -- 19
2020-07-31 17:00:00 33.8 11 Sudoeste 23 Sudoeste 0 -- -- 25
2020-07-31 16:00:00 33.1 8 Sudoeste 20 Oeste 0 -- -- 28
2020-07-31 15:00:00 32.2 9 Sudoeste 24 Sur 0 -- -- 29
2020-07-31 14:00:00 31.2 7 Oeste 19 Sudoeste 0 -- -- 36
2020-07-31 13:00:00 29.5 8 Sudoeste 18 Sur 0 -- -- 40
2020-07-31 12:00:00 27.7 5 Sur 15 Sudoeste 0 -- -- 47
2020-07-31 11:00:00 25.6 11 Sur 20 Sur 0 -- -- 52
2020-07-31 10:00:00 23.2 15 Sur 21 Sur 0 -- -- 59
2020-07-31 09:00:00 21.2 10 Sur 15 Sur 0 -- -- 63
2020-07-31 08:00:00 18.3 5 Sudeste 11 Sur 0 -- -- 71
2020-07-31 07:00:00 17.8 3 Sur 8 Sur 0 -- -- 73
2020-07-31 06:00:00 19.5 2 Sur 15 Sur 0 -- -- 64
2020-07-31 05:00:00 20.6 6 Este 24 Sudeste 0 -- -- 58
2020-07-31 04:00:00 21.6 15 Sur 26 Sudeste 0 -- -- 55
2020-07-31 03:00:00 21.8 12 Sudeste 31 Sudeste 0 -- -- 55
2020-07-31 02:00:00 22 15 Sudeste 38 Sudeste 0 -- -- 54
2020-07-31 01:00:00 21.7 18 Este 33 Este 0 -- -- 57
2020-07-31 00:00:00 21.1 15 Sudeste 33 Este 0 -- -- 64
2020-07-30 23:00:00 20.7 19 Este 32 Este 0.2 -- -- 69
2020-07-30 22:00:00 20.9 12 Este 32 Nordeste 0.6 -- -- 70
2020-07-30 21:00:00 21.2 8 Este 39 Nordeste 7.2 -- -- 75
2020-07-30 20:00:00 22.2 22 Este 50 Sudeste 3.2 -- -- 60
2020-07-30 19:00:00 32.9 12 Norte 27 Norte 0 -- -- 29
2020-07-30 18:00:00 31.4 14 Sudeste 43 Sur 0 -- -- 28
2020-07-30 17:00:00 32.2 22 Sur 40 Sur 0 -- -- 27
2020-07-30 16:00:00 33.1 29 Sudeste 51 Sudeste 0 -- -- 23
2020-07-30 15:00:00 32.3 21 Sur 87 Sur 0 -- -- 22
2020-07-30 14:00:00 30.4 26 Sudeste 70 Sur 0 -- -- 29
2020-07-30 13:00:00 34.4 14 Sur 32 Sudeste 0 -- -- 26
2020-07-30 12:00:00 32.9 19 Sur 31 Sur 0 -- -- 30
2020-07-30 11:00:00 30.5 16 Sudeste 31 Sudeste 0 -- -- 36
2020-07-30 10:00:00 28.4 12 Sudeste 28 Sudeste 0 -- -- 42
2020-07-30 09:00:00 26.3 12 Sudeste 23 Sudeste 0 -- -- 47
2020-07-30 08:00:00 22.5 6 Sudeste 13 Sudeste 0 -- -- 57
2020-07-30 07:00:00 22.2 4 Este 9 Nordeste 0 -- -- 56
2020-07-30 06:00:00 23.5 0 Calma 27 Sudeste 0 -- -- 50
2020-07-30 05:00:00 24.5 13 Sudeste 26 Sudeste 0 -- -- 45
2020-07-30 04:00:00 24.8 11 Sudeste 22 Sudeste 0 -- -- 40
2020-07-30 03:00:00 23.3 8 Sudeste 18 Este 0 -- -- 39
2020-07-30 02:00:00 21.9 7 Nordeste 12 Este 0 -- -- 49
2020-07-30 01:00:00 23.7 4 Este 16 Este 0 -- -- 46
2020-07-30 00:00:00 25.5 9 Este 19 Este 0 -- -- 43
2020-07-29 23:00:00 26.9 10 Este 28 Este 0 -- -- 50
2020-07-29 22:00:00 28 10 Este 23 Este 0 -- -- 37
2020-07-29 21:00:00 29.6 14 Nordeste 30 Nordeste 0 -- -- 39
2020-07-29 20:00:00 31.4 17 Nordeste 30 Nordeste 0 -- -- 35
2020-07-29 19:00:00 33.8 12 Nordeste 19 Norte 0 -- -- 30
2020-07-29 18:00:00 34.7 5 Oeste 20 Norte 0 -- -- 26
2020-07-29 17:00:00 34 9 Norte 17 Noroeste 0 -- -- 27
2020-07-29 16:00:00 33.6 11 Noroeste 26 Norte 0 -- -- 27
2020-07-29 15:00:00 32.7 9 Norte 19 Noroeste 0 -- -- 31
2020-07-29 14:00:00 31.9 5 Noroeste 14 Norte 0 -- -- 35
2020-07-29 13:00:00 29.5 4 Noroeste 14 Nordeste 0 -- -- 46
2020-07-29 12:00:00 26.8 8 Nordeste 16 Nordeste 0 -- -- 53
2020-07-29 11:00:00 23.8 9 Nordeste 15 Nordeste 0 -- -- 61
2020-07-29 10:00:00 20.9 9 Nordeste 17 Nordeste 0 -- -- 69
2020-07-29 09:00:00 17.9 11 Nordeste 22 Nordeste 0 -- -- 79
2020-07-29 08:00:00 15.7 12 Nordeste 21 Nordeste 0 -- -- 88
2020-07-29 07:00:00 15.2 13 Nordeste 21 Nordeste 0 -- -- 89
2020-07-29 06:00:00 15.3 11 Nordeste 24 Nordeste 0 -- -- 89
2020-07-29 05:00:00 15.7 12 Nordeste 29 Nordeste 0 -- -- 89
2020-07-29 04:00:00 16.1 14 Nordeste 28 Nordeste 0 -- -- 88
2020-07-29 03:00:00 16.5 14 Nordeste 35 Nordeste 0 -- -- 87
2020-07-29 02:00:00 16.9 20 Nordeste 36 Nordeste 0 -- -- 87
2020-07-29 01:00:00 17.4 22 Nordeste 40 Nordeste 0 -- -- 86
2020-07-29 00:00:00 17.9 22 Nordeste 39 Nordeste 0 -- -- 84
2020-07-28 23:00:00 18.6 24 Nordeste 43 Nordeste 0 -- -- 82
2020-07-28 22:00:00 19.1 26 Nordeste 56 Nordeste 0 -- -- 78
2020-07-28 21:00:00 20.4 35 Nordeste 54 Nordeste 0 -- -- 73
2020-07-28 20:00:00 22.7 28 Nordeste 52 Nordeste 0 -- -- 63
2020-07-28 19:00:00 25 28 Nordeste 52 Nordeste 0 -- -- 57
2020-07-28 18:00:00 25.4 28 Nordeste 45 Nordeste 0 -- -- 53
2020-07-28 17:00:00 25.9 27 Nordeste 44 Nordeste 0 -- -- 52
2020-07-28 16:00:00 26.6 25 Nordeste 42 Norte 0 -- -- 50
2020-07-28 15:00:00 26.6 23 Nordeste 41 Nordeste 0 -- -- 50
2020-07-28 14:00:00 25 24 Nordeste 42 Nordeste 0 -- -- 55
2020-07-28 13:00:00 24.6 24 Nordeste 38 Nordeste 0 -- -- 56
2020-07-28 12:00:00 23.3 25 Nordeste 40 Norte 0 -- -- 60
2020-07-28 11:00:00 21.3 23 Nordeste 35 Nordeste 0 -- -- 66
2020-07-28 10:00:00 20 18 Nordeste 35 Nordeste 0 -- -- 70
2020-07-28 09:00:00 18 17 Nordeste 34 Nordeste 0 -- -- 76
2020-07-28 08:00:00 16.2 16 Nordeste 30 Nordeste 0 -- -- 83
2020-07-28 07:00:00 16 15 Nordeste 25 Nordeste 0 -- -- 76
2020-07-28 06:00:00 16.6 15 Nordeste 32 Nordeste 0 -- -- 70
2020-07-28 05:00:00 17.3 15 Nordeste 28 Nordeste 0 -- -- 68
2020-07-28 04:00:00 17.4 15 Nordeste 26 Nordeste 0 -- -- 68
2020-07-28 03:00:00 17.9 15 Nordeste 35 Nordeste 0 -- -- 67
2020-07-28 02:00:00 18.6 18 Nordeste 36 Nordeste 0 -- -- 66
2020-07-28 01:00:00 19.7 18 Nordeste 39 Nordeste 0 -- -- 65
2020-07-28 00:00:00 21.4 19 Nordeste 35 Nordeste 0 -- -- 64
2020-07-27 23:00:00 23.6 20 Nordeste 33 Nordeste 0 -- -- 60
2020-07-27 22:00:00 26 15 Nordeste 33 Norte 0 -- -- 58
2020-07-27 21:00:00 28.1 4 Sudeste 59 Sur 0.2 -- -- 43
2020-07-27 20:00:00 36.4 9 Noroeste 26 Norte 0 -- -- 21
2020-07-27 19:00:00 37.3 9 Oeste 21 Sudoeste 0 -- -- 20
2020-07-27 18:00:00 37.3 9 Noroeste 24 Noroeste 0 -- -- 21
2020-07-27 17:00:00 37.3 9 Noroeste 24 Sudoeste 0 -- -- 20
2020-07-27 16:00:00 37 11 Oeste 31 Sudoeste 0 -- -- 20
2020-07-27 15:00:00 36.4 9 Oeste 24 Sudoeste 0 -- -- 22
2020-07-27 14:00:00 35 3 Norte 18 Sudoeste 0 -- -- 24
2020-07-27 13:00:00 33.4 6 Noroeste 12 Noroeste 0 -- -- 27
2020-07-27 12:00:00 31.3 5 Noroeste 10 Norte 0 -- -- 30
2020-07-27 09:00:00 19.8 0 Calma 3 Oeste 0 -- -- 65
2020-07-27 08:00:00 17.1 0 Calma 3 Sur 0 -- -- 68
2020-07-27 07:00:00 17.5 0 Calma 9 Sudeste 0 -- -- 64
2020-07-27 06:00:00 18.7 3 Este 9 Sudeste 0 -- -- 62
2020-07-27 05:00:00 20.9 4 Sudeste 17 Sudeste 0 -- -- 54
2020-07-27 04:00:00 19.3 7 Sudeste 15 Sudeste 0 -- -- 58
2020-07-27 03:00:00 17.7 2 Nordeste 9 Sudeste 0 -- -- 53
2020-07-27 02:00:00 18.5 0 Calma 13 Este 0 -- -- 54
2020-07-27 01:00:00 19.2 3 Nordeste 6 Sudeste 0 -- -- 51
2020-07-27 00:00:00 19.9 0 Calma 5 Este 0 -- -- 52
2020-07-26 23:00:00 22.7 3 Nordeste 5 Nordeste 0 -- -- 47
2020-07-26 22:00:00 26.6 0 Calma 6 Noroeste 0 -- -- 34
2020-07-26 21:00:00 31.1 3 Norte 9 Norte 0 -- -- 26
2020-07-26 20:00:00 33.3 4 Oeste 17 Sudoeste 0 -- -- 23
2020-07-26 19:00:00 33.1 8 Sur 15 Oeste 0 -- -- 20
2020-07-26 18:00:00 33 8 Sudoeste 19 Oeste 0 -- -- 23
2020-07-26 17:00:00 33 6 Norte 17 Oeste 0 -- -- 25
2020-07-26 16:00:00 31.4 7 Oeste 17 Oeste 0 -- -- 28
2020-07-26 15:00:00 30.5 8 Sudoeste 18 Sudoeste 0 -- -- 27
2020-07-26 14:00:00 29.1 7 Noroeste 13 Oeste 0 -- -- 34
2020-07-26 13:00:00 27.6 7 Sudoeste 13 Sudoeste 0 -- -- 40
2020-07-26 12:00:00 25.4 3 Norte 10 Oeste 0 -- -- 46
2020-07-26 11:00:00 23.1 4 Noroeste 9 Sur 0 -- -- 54
2020-07-26 10:00:00 20.7 3 Norte 5 Norte 0 -- -- 61
2020-07-26 09:00:00 18.4 2 Nordeste 11 Este 0 -- -- 68
2020-07-26 08:00:00 15.1 9 Este 16 Este 0 -- -- 78
2020-07-26 07:00:00 14.4 8 Este 14 Este 0 -- -- 78
2020-07-26 06:00:00 14.8 6 Nordeste 12 Este 0 -- -- 76
2020-07-26 05:00:00 15.3 7 Nordeste 12 Nordeste 0 -- -- 75
2020-07-26 04:00:00 15.5 6 Nordeste 14 Nordeste 0 -- -- 75
2020-07-26 03:00:00 16.5 7 Nordeste 27 Nordeste 0 -- -- 72
2020-07-26 02:00:00 17.6 18 Nordeste 34 Nordeste 0 -- -- 65
2020-07-26 01:00:00 18.1 22 Norte 36 Norte 0 -- -- 72
2020-07-26 00:00:00 20.2 15 Nordeste 31 Nordeste 0 -- -- 67
2020-07-25 23:00:00 22.2 16 Nordeste 30 Nordeste 0 -- -- 61
2020-07-25 22:00:00 24.5 19 Nordeste 34 Norte 0 -- -- 53
2020-07-25 21:00:00 29.1 9 Norte 19 Noroeste 0 -- -- 30
2020-07-25 20:00:00 31.7 7 Noroeste 26 Noroeste 0 -- -- 26
2020-07-25 19:00:00 32.4 8 Oeste 26 Oeste 0 -- -- 26
2020-07-25 18:00:00 32.8 12 Oeste 24 Sudoeste 0 -- -- 24
2020-07-25 17:00:00 31.9 10 Oeste 27 Oeste 0 -- -- 26
2020-07-25 16:00:00 31.5 9 Noroeste 24 Sudoeste 0 -- -- 29
2020-07-25 15:00:00 30.8 9 Sudoeste 23 Sudoeste 0 -- -- 28
2020-07-25 14:00:00 29.5 10 Sudoeste 22 Sudoeste 0 -- -- 31
2020-07-25 13:00:00 27.9 5 Sudoeste 12 Oeste 0 -- -- 35
2020-07-25 12:00:00 25.6 5 Norte 12 Norte 0 -- -- 41
2020-07-25 11:00:00 22.9 6 Norte 14 Norte 0 -- -- 48
2020-07-25 10:00:00 19.8 4 Norte 7 Norte 0 -- -- 57
2020-07-25 09:00:00 16 3 Norte 5 Norte 0 -- -- 70
2020-07-25 08:00:00 12.6 0 Calma 5 Nordeste 0 -- -- 84
2020-07-25 07:00:00 11.4 0 Calma 4 Sur 0 -- -- 86
2020-07-25 06:00:00 12.7 0 Calma 7 Este 0 -- -- 81
2020-07-25 05:00:00 13.8 2 Nordeste 10 Nordeste 0 -- -- 75
2020-07-25 04:00:00 14.4 4 Nordeste 9 Norte 0 -- -- 72
2020-07-25 03:00:00 15.2 4 Sur 19 Nordeste 0 -- -- 71
2020-07-25 02:00:00 16.4 13 Nordeste 23 Nordeste 0 -- -- 70
2020-07-25 01:00:00 16.5 12 Nordeste 22 Nordeste 0 -- -- 74
2020-07-25 00:00:00 17.4 13 Nordeste 25 Nordeste 0 -- -- 71
2020-07-24 23:00:00 18.7 13 Nordeste 23 Nordeste 0 -- -- 66
2020-07-24 22:00:00 20.7 14 Nordeste 30 Nordeste 0 -- -- 59
2020-07-24 21:00:00 23.2 17 Nordeste 34 Nordeste 0 -- -- 52
2020-07-24 20:00:00 25.7 18 Nordeste 32 Nordeste 0 -- -- 41
2020-07-24 19:00:00 26.5 20 Norte 34 Norte 0 -- -- 39
2020-07-24 18:00:00 27.4 15 Norte 33 Nordeste 0 -- -- 37
2020-07-24 17:00:00 27.7 18 Norte 35 Nordeste 0 -- -- 35
2020-07-24 16:00:00 27.2 14 Norte 31 Nordeste 0 -- -- 36
2020-07-24 15:00:00 26.1 16 Nordeste 30 Nordeste 0 -- -- 39
2020-07-24 14:00:00 25 17 Norte 29 Norte 0 -- -- 42
2020-07-24 13:00:00 23.2 17 Norte 31 Norte 0 -- -- 50
2020-07-24 12:00:00 21.8 17 Norte 31 Nordeste 0 -- -- 56
2020-07-24 11:00:00 20.2 19 Nordeste 32 Norte 0 -- -- 60
2020-07-24 10:00:00 18.4 18 Nordeste 32 Nordeste 0 -- -- 66
2020-07-24 09:00:00 16.7 15 Nordeste 31 Nordeste 0 -- -- 71
2020-07-24 08:00:00 15 17 Nordeste 33 Norte 0 -- -- 74
2020-07-24 07:00:00 14.2 14 Nordeste 27 Nordeste 0 -- -- 75
2020-07-24 06:00:00 14.3 17 Nordeste 29 Nordeste 0 -- -- 77
2020-07-24 05:00:00 14.8 15 Nordeste 31 Nordeste 0 -- -- 76
2020-07-24 04:00:00 14.9 15 Nordeste 27 Nordeste 0 -- -- 84
2020-07-24 03:00:00 16.1 12 Nordeste 28 Nordeste 0 -- -- 80
2020-07-24 02:00:00 16.8 14 Nordeste 32 Nordeste 0 -- -- 79
2020-07-24 01:00:00 17.5 20 Nordeste 36 Norte 0 -- -- 78
2020-07-24 00:00:00 18.7 19 Nordeste 36 Nordeste 0 -- -- 75
2020-07-23 23:00:00 19.8 21 Nordeste 45 Norte 0 -- -- 74
2020-07-23 22:00:00 22.3 27 Nordeste 41 Nordeste 0 -- -- 62
2020-07-23 21:00:00 24.8 20 Nordeste 38 Nordeste 0 -- -- 55
2020-07-23 20:00:00 26.6 18 Nordeste 35 Nordeste 0 -- -- 50
2020-07-23 19:00:00 29 22 Nordeste 37 Nordeste 0 -- -- 45
2020-07-23 18:00:00 30.9 8 Noroeste 21 Noroeste 0 -- -- 32
2020-07-23 17:00:00 31.8 8 Noroeste 22 Norte 0 -- -- 31
2020-07-23 16:00:00 30.3 6 Oeste 19 Oeste 0 -- -- 35
2020-07-23 15:00:00 30.5 7 Oeste 17 Oeste 0 -- -- 33
2020-07-23 14:00:00 29.8 6 Oeste 18 Noroeste 0 -- -- 39
2020-07-23 13:00:00 28.5 6 Noroeste 16 Norte 0 -- -- 43
2020-07-23 12:00:00 26.6 5 Oeste 12 Oeste 0 -- -- 47
2020-07-23 11:00:00 24.3 3 Norte 8 Noroeste 0 -- -- 57
2020-07-23 10:00:00 21.8 3 Noroeste 8 Nordeste 0 -- -- 69
2020-07-23 09:00:00 19.7 3 Nordeste 10 Nordeste 0 -- -- 76
2020-07-23 08:00:00 17.1 4 Este 9 Nordeste 0 -- -- 86
2020-07-23 07:00:00 16.1 4 Norte 8 Norte 0 -- -- 89
2020-07-23 06:00:00 17.3 4 Nordeste 9 Nordeste 0 -- -- 85
2020-07-23 05:00:00 18 5 Nordeste 16 Nordeste 0 -- -- 83
2020-07-23 04:00:00 18.6 12 Nordeste 17 Nordeste 0 -- -- 81
2020-07-23 03:00:00 19 8 Nordeste 18 Nordeste 0 -- -- 81
2020-07-23 02:00:00 20 10 Nordeste 23 Nordeste 0 -- -- 76
2020-07-23 01:00:00 21 11 Nordeste 19 Nordeste 0 -- -- 74
2020-07-23 00:00:00 22 10 Nordeste 19 Nordeste 0 -- -- 73
2020-07-22 23:00:00 23.1 10 Nordeste 15 Nordeste 0 -- -- 67
2020-07-22 22:00:00 25.1 6 Este 18 Nordeste 0 -- -- 52
2020-07-22 21:00:00 27.2 13 Nordeste 23 Nordeste 0 -- -- 46
2020-07-22 20:00:00 28.3 15 Nordeste 28 Nordeste 0 -- -- 42
2020-07-22 19:00:00 28.4 19 Nordeste 32 Norte 0 -- -- 44
2020-07-22 18:00:00 29.3 14 Norte 24 Norte 0 -- -- 40
2020-07-22 17:00:00 30.5 5 Sur 17 Oeste 0 -- -- 34
2020-07-22 16:00:00 30.2 8 Norte 19 Sudoeste 0 -- -- 33
2020-07-22 15:00:00 29.8 5 Este 22 Nordeste 0 -- -- 35
2020-07-22 14:00:00 28.7 4 Este 23 Sudeste 0 -- -- 37
2020-07-22 13:00:00 27.5 8 Sur 23 Sur 0 -- -- 40
2020-07-22 12:00:00 26.2 10 Sudeste 22 Sudeste 0 -- -- 43
2020-07-22 11:00:00 23.3 12 Norte 25 Norte 0 -- -- 65
2020-07-22 10:00:00 21 8 Norte 15 Sur 0 -- -- 75
2020-07-22 09:00:00 18.4 10 Sur 27 Sur 0 -- -- 77
2020-07-22 08:00:00 17.8 12 Nordeste 21 Este 0 -- -- 79
2020-07-22 07:00:00 17.1 10 Sudeste 18 Sudeste 0 -- -- 81
2020-07-22 06:00:00 16.4 3 Sudeste 60 Sur 9.4 -- -- 90
2020-07-22 05:00:00 16.8 7 Oeste 12 Oeste 0 -- -- 87
2020-07-22 04:00:00 16.2 2 Oeste 7 Oeste 0 -- -- 88
2020-07-22 03:00:00 16.5 0 Calma 6 Sur 0 -- -- 87
2020-07-22 02:00:00 16.7 3 Oeste 12 Sur 0 -- -- 85
2020-07-22 01:00:00 17.3 5 Nordeste 14 Nordeste 0 -- -- 80
2020-07-22 00:00:00 18 9 Este 22 Nordeste 0 -- -- 76
2020-07-21 23:00:00 18.4 15 Nordeste 31 Nordeste 0.2 -- -- 77
2020-07-21 22:00:00 19.8 5 Noroeste 29 Nordeste 0.2 -- -- 75
2020-07-21 21:00:00 19.9 18 Este 39 Este 0.2 -- -- 66
2020-07-21 20:00:00 20.1 8 Nordeste 35 Norte 0 -- -- 66
2020-07-21 19:00:00 20.6 17 Norte 34 Norte 1.2 -- -- 66
2020-07-21 18:00:00 21.1 13 Norte 31 Nordeste 2 -- -- 64
2020-07-21 17:00:00 21.4 4 Norte 39 Nordeste 10.4 -- -- 58
2020-07-21 16:00:00 31.6 24 Nordeste 39 Norte 0 -- -- 36
2020-07-21 15:00:00 33.4 13 Norte 27 Norte 0 -- -- 32
2020-07-21 14:00:00 34.1 3 Sudoeste 15 Sur 0 -- -- 27
2020-07-21 13:00:00 32.8 4 Noroeste 17 Sudeste 0 -- -- 28
2020-07-21 12:00:00 30.8 7 Sur 16 Sur 0 -- -- 36
2020-07-21 11:00:00 28.4 8 Sur 15 Sur 0 -- -- 43
2020-07-21 10:00:00 22.6 3 Norte 6 Nordeste 0 -- -- 61
2020-07-21 09:00:00 18.4 4 Nordeste 6 Nordeste 0 -- -- 73
2020-07-21 08:00:00 15.8 3 Nordeste 13 Nordeste 0 -- -- 82
2020-07-21 07:00:00 15.1 9 Nordeste 14 Nordeste 0 -- -- 84
2020-07-21 06:00:00 15.2 9 Nordeste 16 Nordeste 0 -- -- 84
2020-07-21 05:00:00 15.6 10 Nordeste 19 Nordeste 0 -- -- 82
2020-07-21 04:00:00 16 11 Nordeste 22 Este 0 -- -- 81
2020-07-21 03:00:00 16.7 13 Nordeste 22 Nordeste 0 -- -- 79
2020-07-21 02:00:00 17.6 14 Nordeste 24 Nordeste 0 -- -- 77
2020-07-21 01:00:00 18.5 16 Nordeste 27 Nordeste 0 -- -- 76
2020-07-21 00:00:00 19.7 17 Nordeste 30 Nordeste 0 -- -- 74
2020-07-20 23:00:00 21.3 17 Nordeste 37 Nordeste 0 -- -- 70
2020-07-20 22:00:00 23.9 18 Nordeste 39 Nordeste 0 -- -- 62
2020-07-20 21:00:00 27.5 20 Nordeste 36 Nordeste 0 -- -- 51
2020-07-20 20:00:00 30.5 18 Nordeste 31 Norte 0 -- -- 41
2020-07-20 19:00:00 32.1 17 Norte 27 Norte 0 -- -- 36
2020-07-20 18:00:00 32.5 10 Norte 23 Este 0 -- -- 34
2020-07-20 17:00:00 32.7 10 Norte 29 Norte 0 -- -- 31
2020-07-20 16:00:00 33.2 14 Norte 40 Sudoeste 0 -- -- 31
2020-07-20 15:00:00 32.8 9 Oeste 19 Sur 0 -- -- 26
2020-07-20 14:00:00 31.6 9 Oeste 18 Oeste 0 -- -- 30
2020-07-20 13:00:00 31 4 Sur 15 Sudoeste 0 -- -- 32
2020-07-20 12:00:00 29 5 Sudoeste 15 Sur 0 -- -- 34
2020-07-20 11:00:00 26.7 5 Sur 17 Sur 0 -- -- 38
2020-07-20 10:00:00 23.3 4 Norte 11 Nordeste 0 -- -- 48
2020-07-20 09:00:00 19.6 6 Nordeste 19 Nordeste 0 -- -- 63
2020-07-20 08:00:00 16.5 10 Nordeste 15 Nordeste 0 -- -- 75
2020-07-20 07:00:00 15.9 9 Nordeste 19 Nordeste 0 -- -- 78
2020-07-20 06:00:00 16.4 13 Nordeste 21 Nordeste 0 -- -- 78
2020-07-20 05:00:00 16.9 15 Nordeste 24 Nordeste 0 -- -- 77
2020-07-20 04:00:00 17.5 15 Nordeste 26 Nordeste 0 -- -- 76
2020-07-20 03:00:00 18.4 15 Nordeste 24 Nordeste 0 -- -- 75
2020-07-20 02:00:00 19.4 11 Nordeste 19 Nordeste 0 -- -- 72
2020-07-20 01:00:00 20.7 12 Nordeste 20 Nordeste 0 -- -- 67
2020-07-20 00:00:00 22.7 10 Nordeste 19 Nordeste 0 -- -- 49
2020-07-19 23:00:00 24 13 Nordeste 27 Nordeste 0 -- -- 59
2020-07-19 22:00:00 26.5 15 Nordeste 37 Norte 0 -- -- 50
2020-07-19 21:00:00 30.1 17 Nordeste 27 Nordeste 0 -- -- 32
2020-07-19 20:00:00 32.7 15 Nordeste 26 Nordeste 0 -- -- 28
2020-07-19 19:00:00 33.8 6 Oeste 15 Sudoeste 0 -- -- 21
2020-07-19 18:00:00 34.2 7 Oeste 18 Oeste 0 -- -- 21
2020-07-19 17:00:00 35.2 6 Sudoeste 21 Noroeste 0 -- -- 20
2020-07-19 16:00:00 34.6 10 Noroeste 24 Sudoeste 0 -- -- 22
2020-07-19 15:00:00 33.7 8 Sudoeste 26 Sur 0 -- -- 22
2020-07-19 14:00:00 32.8 10 Sudoeste 21 Sudoeste 0 -- -- 24
2020-07-19 13:00:00 32.1 10 Sudeste 23 Sur 0 -- -- 25
2020-07-19 12:00:00 30.7 8 Sur 19 Sur 0 -- -- 26
2020-07-19 11:00:00 28.8 7 Sur 17 Sur 0 -- -- 30
2020-07-19 10:00:00 26.5 9 Sudeste 21 Este 0 -- -- 34
2020-07-19 09:00:00 22.8 9 Sudeste 16 Sudeste 0 -- -- 41
2020-07-19 08:00:00 15.9 0 Calma 4 Sudeste 0 -- -- 66
2020-07-19 07:00:00 13.7 0 Calma 6 Oeste 0 -- -- 71
2020-07-19 06:00:00 16.4 4 Noroeste 15 Sudeste 0 -- -- 62
2020-07-19 05:00:00 14.4 2 Este 5 Sudeste 0 -- -- 70
2020-07-19 04:00:00 14.9 0 Calma 6 Nordeste 0 -- -- 68
2020-07-19 03:00:00 17 3 Sudeste 9 Sudeste 0 -- -- 59
2020-07-19 02:00:00 16.3 3 Este 9 Sudeste 0 -- -- 62
2020-07-19 01:00:00 18.9 0 Calma 14 Este 0 -- -- 56
2020-07-19 00:00:00 21.7 11 Este 16 Este 0 -- -- 49
2020-07-18 23:00:00 23.3 8 Este 14 Este 0 -- -- 44
2020-07-18 22:00:00 25.6 10 Nordeste 21 Nordeste 0 -- -- 37
2020-07-18 21:00:00 28.3 12 Nordeste 23 Nordeste 0 -- -- 32
2020-07-18 20:00:00 31.1 10 Norte 17 Norte 0 -- -- 22
2020-07-18 19:00:00 31.6 8 Norte 15 Norte 0 -- -- 21
2020-07-18 18:00:00 31.4 7 Noroeste 15 Oeste 0 -- -- 19
2020-07-18 17:00:00 30.5 7 Sudoeste 16 Norte 0 -- -- 20
2020-07-18 16:00:00 30 5 Sur 14 Sudeste 0 -- -- 23
2020-07-18 15:00:00 28.1 6 Sudeste 19 Sur 0 -- -- 27
2020-07-18 14:00:00 26.9 4 Sudeste 14 Norte 0 -- -- 30
2020-07-18 13:00:00 24.7 4 Oeste 10 Este 0 -- -- 35
2020-07-18 12:00:00 22.4 5 Noroeste 12 Nordeste 0 -- -- 43
2020-07-18 11:00:00 19.9 6 Sudoeste 11 Sudoeste 0 -- -- 50
2020-07-18 10:00:00 17.7 2 Nordeste 13 Nordeste 0 -- -- 57
2020-07-18 09:00:00 14.8 9 Nordeste 16 Nordeste 0 -- -- 71
2020-07-18 08:00:00 12.5 6 Este 15 Este 0 -- -- 79
2020-07-18 07:00:00 11.5 9 Nordeste 21 Nordeste 0 -- -- 85
2020-07-18 06:00:00 12 12 Nordeste 21 Este 0 -- -- 85
2020-07-18 05:00:00 12.1 13 Nordeste 22 Nordeste 0 -- -- 84
2020-07-18 04:00:00 12.2 9 Nordeste 17 Nordeste 0 -- -- 83
2020-07-18 03:00:00 12.5 14 Nordeste 24 Nordeste 0 -- -- 82
2020-07-18 02:00:00 13.4 17 Nordeste 37 Nordeste 0 -- -- 78
2020-07-18 01:00:00 14 22 Nordeste 38 Nordeste 0 -- -- 76
2020-07-18 00:00:00 14.7 17 Nordeste 36 Nordeste 0 -- -- 73
2020-07-17 23:00:00 15.8 21 Nordeste 33 Nordeste 0 -- -- 69
2020-07-17 22:00:00 17.5 24 Norte 36 Nordeste 0 -- -- 64
2020-07-17 21:00:00 19.9 24 Nordeste 38 Nordeste 0 -- -- 56
2020-07-17 20:00:00 22.5 23 Nordeste 45 Nordeste 0 -- -- 46
2020-07-17 19:00:00 23.9 23 Nordeste 47 Nordeste 0 -- -- 40
2020-07-17 18:00:00 25.1 21 Nordeste 41 Nordeste 0 -- -- 37
2020-07-17 17:00:00 25.1 25 Nordeste 41 Nordeste 0 -- -- 34
2020-07-17 16:00:00 25.1 22 Nordeste 51 Nordeste 0 -- -- 31
2020-07-17 15:00:00 24.5 22 Nordeste 43 Nordeste 0 -- -- 35
2020-07-17 14:00:00 23.7 23 Norte 35 Nordeste 0 -- -- 36
2020-07-17 13:00:00 22.3 24 Nordeste 38 Nordeste 0 -- -- 41
2020-07-17 12:00:00 20.8 21 Nordeste 32 Norte 0 -- -- 48
2020-07-17 11:00:00 19 20 Norte 32 Norte 0 -- -- 53
2020-07-17 10:00:00 16.3 13 Nordeste 25 Nordeste 0 -- -- 66
2020-07-17 09:00:00 14 10 Nordeste 22 Norte 0 -- -- 75
2020-07-17 08:00:00 11.5 9 Nordeste 15 Nordeste 0 -- -- 85
2020-07-17 07:00:00 10.1 2 Norte 20 Norte 0 -- -- 88
2020-07-17 06:00:00 10.8 17 Norte 27 Norte 0 -- -- 86
2020-07-17 05:00:00 11.3 14 Nordeste 24 Nordeste 0 -- -- 84
2020-07-17 04:00:00 11.6 10 Norte 21 Nordeste 0 -- -- 77
2020-07-17 03:00:00 13.2 14 Nordeste 23 Norte 0 -- -- 70
2020-07-17 02:00:00 13.5 13 Norte 22 Norte 0 -- -- 71
2020-07-17 01:00:00 15 13 Nordeste 35 Nordeste 0 -- -- 66
2020-07-17 00:00:00 16.7 21 Nordeste 33 Nordeste 0 -- -- 55
2020-07-16 23:00:00 17.8 21 Nordeste 43 Nordeste 0 -- -- 52
2020-07-16 22:00:00 19.1 21 Nordeste 46 Nordeste 0 -- -- 50
2020-07-16 21:00:00 21.4 24 Nordeste 45 Nordeste 0 -- -- 43
2020-07-16 20:00:00 23.5 27 Nordeste 48 Nordeste 0 -- -- 44
2020-07-16 19:00:00 24.6 26 Nordeste 45 Nordeste 0 -- -- 44
2020-07-16 18:00:00 25.9 27 Nordeste 44 Nordeste 0 -- -- 40
2020-07-16 17:00:00 26.3 25 Nordeste 50 Norte 0 -- -- 39
2020-07-16 16:00:00 26.8 23 Norte 35 Norte 0 -- -- 39
2020-07-16 15:00:00 26.6 17 Norte 29 Norte 0 -- -- 39
2020-07-16 14:00:00 25.5 13 Nordeste 29 Norte 0 -- -- 41
2020-07-16 13:00:00 24.8 13 Norte 26 Norte 0 -- -- 42
2020-07-16 12:00:00 23.1 7 Norte 19 Norte 0 -- -- 41
2020-07-16 11:00:00 20.1 7 Nordeste 13 Norte 0 -- -- 45
2020-07-16 10:00:00 17.4 8 Norte 14 Nordeste 0 -- -- 53
2020-07-16 09:00:00 14.4 10 Nordeste 19 Nordeste 0 -- -- 64
2020-07-16 08:00:00 11.8 9 Nordeste 15 Nordeste 0 -- -- 78
2020-07-16 07:00:00 10.7 6 Nordeste 26 Norte 0 -- -- 83
2020-07-16 06:00:00 11.1 15 Nordeste 24 Nordeste 0 -- -- 80
2020-07-16 05:00:00 11.2 8 Nordeste 17 Norte 0 -- -- 80
2020-07-16 04:00:00 11.8 4 Nordeste 16 Nordeste 0 -- -- 77
2020-07-16 03:00:00 12.4 9 Nordeste 14 Nordeste 0 -- -- 73
2020-07-16 02:00:00 13.9 4 Nordeste 31 Nordeste 0 -- -- 65
2020-07-16 01:00:00 14.8 14 Nordeste 26 Nordeste 0 -- -- 62
2020-07-16 00:00:00 15.3 17 Nordeste 32 Nordeste 0 -- -- 61
2020-07-15 23:00:00 16.5 13 Nordeste 31 Nordeste 0 -- -- 57
2020-07-15 22:00:00 17.7 22 Nordeste 43 Nordeste 0 -- -- 54
2020-07-15 21:00:00 19.7 21 Nordeste 40 Nordeste 0 -- -- 50
2020-07-15 20:00:00 21.7 23 Nordeste 38 Nordeste 0 -- -- 47
2020-07-15 19:00:00 22.6 21 Nordeste 36 Norte 0 -- -- 44
2020-07-15 18:00:00 22.7 22 Nordeste 40 Nordeste 0 -- -- 44
2020-07-15 17:00:00 22.4 23 Nordeste 45 Norte 0 -- -- 48
2020-07-15 16:00:00 22.2 26 Nordeste 46 Norte 0 -- -- 50
2020-07-15 15:00:00 22 25 Nordeste 45 Norte 0 -- -- 48
2020-07-15 14:00:00 21.7 26 Nordeste 40 Norte 0 -- -- 47
2020-07-15 13:00:00 21 20 Nordeste 40 Nordeste 0 -- -- 49
2020-07-15 12:00:00 19.2 26 Nordeste 44 Nordeste 0 -- -- 56
2020-07-15 11:00:00 18.4 28 Nordeste 48 Norte 0 -- -- 57
2020-07-15 10:00:00 17.3 25 Nordeste 42 Nordeste 0 -- -- 60
2020-07-15 09:00:00 15.5 23 Nordeste 41 Nordeste 0 -- -- 64
2020-07-15 08:00:00 13.3 26 Nordeste 44 Nordeste 0 -- -- 66
2020-07-15 07:00:00 11.4 20 Nordeste 32 Nordeste 0 -- -- 63
2020-07-15 06:00:00 11.4 19 Nordeste 36 Nordeste 0 -- -- 59
2020-07-15 05:00:00 11.5 23 Nordeste 36 Norte 0 -- -- 57
2020-07-15 04:00:00 11.6 20 Nordeste 40 Nordeste 0 -- -- 48
2020-07-15 03:00:00 12.1 21 Nordeste 38 Norte 0 -- -- 46
2020-07-15 02:00:00 12.4 18 Nordeste 33 Nordeste 0 -- -- 49
2020-07-15 01:00:00 13.1 20 Nordeste 36 Nordeste 0 -- -- 49
2020-07-15 00:00:00 13.7 18 Nordeste 43 Nordeste 0 -- -- 53